sensor_id;sensor_type;location;lat;lon;timestamp;pressure;altitude;pressure_sealevel;temperature;humidity
30081;BME280;16902;50.816;12.828;2023-07-13T00:04:05;97571.00;;;18.67;100.00
30081;BME280;16902;50.816;12.828;2023-07-13T00:09:07;97563.00;;;18.34;100.00
30081;BME280;16902;50.816;12.828;2023-07-13T00:14:10;97573.00;;;18.08;100.00
30081;BME280;16902;50.816;12.828;2023-07-13T00:19:13;97577.38;;;18.03;100.00
30081;BME280;16902;50.816;12.828;2023-07-13T00:24:17;97580.59;;;17.93;100.00
30081;BME280;16902;50.816;12.828;2023-07-13T00:29:26;97578.22;;;17.80;100.00
30081;BME280;16902;50.816;12.828;2023-07-13T00:34:28;97588.06;;;17.84;100.00
30081;BME280;16902;50.816;12.828;2023-07-13T00:39:30;97604.19;;;17.76;100.00
30081;BME280;16902;50.816;12.828;2023-07-13T00:44:31;97593.38;;;17.54;100.00
30081;BME280;16902;50.816;12.828;2023-07-13T00:49:35;97582.06;;;17.42;100.00
30081;BME280;16902;50.816;12.828;2023-07-13T00:54:41;97576.56;;;17.43;100.00
30081;BME280;16902;50.816;12.828;2023-07-13T00:59:52;97557.47;;;17.36;100.00
30081;BME280;16902;50.816;12.828;2023-07-13T01:04:56;97552.88;;;17.32;100.00
30081;BME280;16902;50.816;12.828;2023-07-13T01:09:58;97550.34;;;17.25;100.00
30081;BME280;16902;50.816;12.828;2023-07-13T01:15:01;97550.78;;;17.10;100.00
30081;BME280;16902;50.816;12.828;2023-07-13T01:20:04;97557.88;;;16.98;100.00
30081;BME280;16902;50.816;12.828;2023-07-13T01:25:06;97566.44;;;16.93;100.00
30081;BME280;16902;50.816;12.828;2023-07-13T01:30:10;97572.72;;;17.04;100.00
30081;BME280;16902;50.816;12.828;2023-07-13T01:35:12;97570.41;;;16.96;100.00
30081;BME280;16902;50.816;12.828;2023-07-13T01:40:14;97561.03;;;16.88;100.00
30081;BME280;16902;50.816;12.828;2023-07-13T01:45:17;97559.88;;;16.84;100.00
30081;BME280;16902;50.816;12.828;2023-07-13T01:50:19;97567.16;;;16.82;100.00
30081;BME280;16902;50.816;12.828;2023-07-13T01:55:22;97570.84;;;16.81;100.00
30081;BME280;16902;50.816;12.828;2023-07-13T02:00:24;97574.38;;;16.75;100.00
30081;BME280;16902;50.816;12.828;2023-07-13T02:05:26;97570.41;;;16.66;100.00
30081;BME280;16902;50.816;12.828;2023-07-13T02:10:28;97571.81;;;16.68;100.00
30081;BME280;16902;50.816;12.828;2023-07-13T02:15:30;97565.03;;;16.61;100.00
30081;BME280;16902;50.816;12.828;2023-07-13T02:20:32;97555.13;;;16.44;100.00
30081;BME280;16902;50.816;12.828;2023-07-13T02:25:34;97569.75;;;16.40;100.00
30081;BME280;16902;50.816;12.828;2023-07-13T02:30:36;97563.97;;;16.32;100.00
30081;BME280;16902;50.816;12.828;2023-07-13T02:35:38;97569.47;;;16.30;100.00
30081;BME280;16902;50.816;12.828;2023-07-13T02:40:40;97564.53;;;16.34;100.00
30081;BME280;16902;50.816;12.828;2023-07-13T02:45:46;97572.53;;;16.27;100.00
30081;BME280;16902;50.816;12.828;2023-07-13T02:50:48;97579.31;;;16.16;100.00
30081;BME280;16902;50.816;12.828;2023-07-13T02:55:49;97587.44;;;16.15;100.00
30081;BME280;16902;50.816;12.828;2023-07-13T03:00:55;97594.19;;;16.04;100.00
30081;BME280;16902;50.816;12.828;2023-07-13T03:06:00;97589.38;;;16.01;100.00
30081;BME280;16902;50.816;12.828;2023-07-13T03:11:14;97595.63;;;16.00;100.00
30081;BME280;16902;50.816;12.828;2023-07-13T03:16:18;97602.53;;;16.01;100.00
30081;BME280;16902;50.816;12.828;2023-07-13T03:21:23;97601.34;;;15.97;100.00
30081;BME280;16902;50.816;12.828;2023-07-13T03:26:25;97595.63;;;16.00;100.00
30081;BME280;16902;50.816;12.828;2023-07-13T03:31:29;97589.59;;;16.00;100.00
30081;BME280;16902;50.816;12.828;2023-07-13T03:36:32;97593.38;;;16.04;100.00
30081;BME280;16902;50.816;12.828;2023-07-13T03:41:39;97600.38;;;16.10;100.00
30081;BME280;16902;50.816;12.828;2023-07-13T03:46:41;97623.69;;;16.25;100.00
30081;BME280;16902;50.816;12.828;2023-07-13T03:51:43;97608.78;;;16.37;100.00
30081;BME280;16902;50.816;12.828;2023-07-13T03:56:45;97629.66;;;16.32;100.00
30081;BME280;16902;50.816;12.828;2023-07-13T04:01:47;97633.69;;;16.16;100.00
30081;BME280;16902;50.816;12.828;2023-07-13T04:06:49;97615.19;;;15.86;100.00
30081;BME280;16902;50.816;12.828;2023-07-13T04:11:51;97620.09;;;15.76;100.00
30081;BME280;16902;50.816;12.828;2023-07-13T04:16:53;97622.25;;;15.60;100.00
30081;BME280;16902;50.816;12.828;2023-07-13T04:21:58;97614.13;;;15.68;100.00
30081;BME280;16902;50.816;12.828;2023-07-13T04:27:03;97616.84;;;15.80;100.00
30081;BME280;16902;50.816;12.828;2023-07-13T04:32:05;97612.78;;;15.84;100.00
30081;BME280;16902;50.816;12.828;2023-07-13T04:37:07;97607.91;;;15.88;100.00
30081;BME280;16902;50.816;12.828;2023-07-13T04:42:09;97620.78;;;15.89;100.00
30081;BME280;16902;50.816;12.828;2023-07-13T04:47:11;97632.41;;;16.00;100.00
30081;BME280;16902;50.816;12.828;2023-07-13T04:52:13;97640.31;;;16.18;100.00
30081;BME280;16902;50.816;12.828;2023-07-13T04:57:16;97640.44;;;16.60;100.00
30081;BME280;16902;50.816;12.828;2023-07-13T05:02:18;97642.41;;;17.13;100.00
30081;BME280;16902;50.816;12.828;2023-07-13T05:07:22;97655.03;;;17.35;100.00
30081;BME280;16902;50.816;12.828;2023-07-13T05:12:24;97657.91;;;17.33;100.00
30081;BME280;16902;50.816;12.828;2023-07-13T05:17:26;97656.72;;;17.17;100.00
30081;BME280;16902;50.816;12.828;2023-07-13T05:22:28;97660.34;;;17.05;100.00
30081;BME280;16902;50.816;12.828;2023-07-13T05:27:30;97655.16;;;16.98;100.00
30081;BME280;16902;50.816;12.828;2023-07-13T05:32:33;97664.22;;;17.02;100.00
30081;BME280;16902;50.816;12.828;2023-07-13T05:37:36;97663.53;;;17.48;100.00
30081;BME280;16902;50.816;12.828;2023-07-13T05:42:39;97666.94;;;18.14;100.00
30081;BME280;16902;50.816;12.828;2023-07-13T05:47:41;97673.16;;;18.84;100.00
30081;BME280;16902;50.816;12.828;2023-07-13T05:52:43;97677.19;;;19.32;100.00
30081;BME280;16902;50.816;12.828;2023-07-13T05:57:45;97680.25;;;19.57;100.00
30081;BME280;16902;50.816;12.828;2023-07-13T06:02:46;97678.97;;;19.43;100.00
30081;BME280;16902;50.816;12.828;2023-07-13T06:07:48;97688.63;;;19.20;100.00
30081;BME280;16902;50.816;12.828;2023-07-13T06:12:50;97697.50;;;19.03;100.00
30081;BME280;16902;50.816;12.828;2023-07-13T06:17:52;97697.94;;;19.11;100.00
30081;BME280;16902;50.816;12.828;2023-07-13T06:22:54;97696.56;;;19.83;100.00
30081;BME280;16902;50.816;12.828;2023-07-13T06:27:59;97704.16;;;20.13;100.00
30081;BME280;16902;50.816;12.828;2023-07-13T06:33:02;97703.53;;;19.89;100.00
30081;BME280;16902;50.816;12.828;2023-07-13T06:38:04;97707.97;;;19.55;100.00
30081;BME280;16902;50.816;12.828;2023-07-13T06:43:06;97705.06;;;19.39;100.00
30081;BME280;16902;50.816;12.828;2023-07-13T06:48:08;97712.34;;;19.49;100.00
30081;BME280;16902;50.816;12.828;2023-07-13T06:53:12;97713.28;;;19.88;100.00
30081;BME280;16902;50.816;12.828;2023-07-13T06:58:16;97715.72;;;20.28;100.00
30081;BME280;16902;50.816;12.828;2023-07-13T07:03:18;97714.03;;;20.56;100.00
30081;BME280;16902;50.816;12.828;2023-07-13T07:08:20;97713.22;;;20.56;100.00
30081;BME280;16902;50.816;12.828;2023-07-13T07:13:22;97718.09;;;20.86;100.00
30081;BME280;16902;50.816;12.828;2023-07-13T07:18:24;97730.22;;;21.03;100.00
30081;BME280;16902;50.816;12.828;2023-07-13T07:23:26;97726.38;;;21.16;100.00
30081;BME280;16902;50.816;12.828;2023-07-13T07:28:29;97724.41;;;21.55;100.00
30081;BME280;16902;50.816;12.828;2023-07-13T07:33:43;97727.38;;;21.91;100.00
30081;BME280;16902;50.816;12.828;2023-07-13T07:38:45;97720.84;;;22.41;100.00
30081;BME280;16902;50.816;12.828;2023-07-13T07:43:47;97723.91;;;22.70;100.00
30081;BME280;16902;50.816;12.828;2023-07-13T07:48:49;97726.09;;;22.83;100.00
30081;BME280;16902;50.816;12.828;2023-07-13T07:53:51;97727.84;;;23.25;100.00
30081;BME280;16902;50.816;12.828;2023-07-13T07:58:53;97735.34;;;23.49;100.00
30081;BME280;16902;50.816;12.828;2023-07-13T08:03:58;97743.53;;;23.17;100.00
30081;BME280;16902;50.816;12.828;2023-07-13T08:09:03;97740.91;;;23.32;100.00
30081;BME280;16902;50.816;12.828;2023-07-13T08:14:06;97754.94;;;23.12;100.00
30081;BME280;16902;50.816;12.828;2023-07-13T08:19:07;97754.16;;;22.22;100.00
30081;BME280;16902;50.816;12.828;2023-07-13T08:24:10;97754.69;;;21.92;100.00
30081;BME280;16902;50.816;12.828;2023-07-13T08:29:12;97756.31;;;21.98;100.00
30081;BME280;16902;50.816;12.828;2023-07-13T08:34:14;97755.53;;;22.29;100.00
30081;BME280;16902;50.816;12.828;2023-07-13T08:39:18;97761.78;;;22.55;100.00
30081;BME280;16902;50.816;12.828;2023-07-13T08:44:30;97755.44;;;23.14;100.00
30081;BME280;16902;50.816;12.828;2023-07-13T08:49:37;97755.91;;;24.04;100.00
30081;BME280;16902;50.816;12.828;2023-07-13T08:54:44;97755.63;;;24.11;100.00
30081;BME280;16902;50.816;12.828;2023-07-13T08:59:47;97764.28;;;24.88;92.45
30081;BME280;16902;50.816;12.828;2023-07-13T09:15:38;97769.88;;;25.91;100.00
30081;BME280;16902;50.816;12.828;2023-07-13T09:25:48;97773.06;;;27.65;69.81
30081;BME280;16902;50.816;12.828;2023-07-13T09:31:17;97788.56;;;25.91;71.94
30081;BME280;16902;50.816;12.828;2023-07-13T09:36:25;97790.72;;;24.03;100.00
30081;BME280;16902;50.816;12.828;2023-07-13T09:46:53;97797.06;;;22.51;100.00
30081;BME280;16902;50.816;12.828;2023-07-13T09:52:02;97805.16;;;23.29;100.00
30081;BME280;16902;50.816;12.828;2023-07-13T09:57:16;97803.78;;;24.20;100.00
30081;BME280;16902;50.816;12.828;2023-07-13T10:02:29;97801.63;;;24.22;100.00
30081;BME280;16902;50.816;12.828;2023-07-13T10:07:32;97806.16;;;23.91;100.00
30081;BME280;16902;50.816;12.828;2023-07-13T10:12:39;97803.75;;;23.89;100.00
30081;BME280;16902;50.816;12.828;2023-07-13T10:17:41;97799.22;;;24.56;100.00
30081;BME280;16902;50.816;12.828;2023-07-13T10:28:25;97806.00;;;25.78;79.20
30081;BME280;16902;50.816;12.828;2023-07-13T10:33:28;97797.75;;;25.69;68.90
30081;BME280;16902;50.816;12.828;2023-07-13T10:38:31;97801.84;;;26.30;66.67
30081;BME280;16902;50.816;12.828;2023-07-13T10:43:36;97795.38;;;26.07;66.78
30081;BME280;16902;50.816;12.828;2023-07-13T10:48:40;97793.13;;;26.53;69.19
30081;BME280;16902;50.816;12.828;2023-07-13T10:53:44;97798.34;;;27.16;53.16
30081;BME280;16902;50.816;12.828;2023-07-13T11:04:23;97795.84;;;26.48;59.09
30081;BME280;16902;50.816;12.828;2023-07-13T11:15:10;97783.72;;;25.53;93.58
30081;BME280;16902;50.816;12.828;2023-07-13T11:35:34;97791.03;;;36.38;33.86
30081;BME280;16902;50.816;12.828;2023-07-13T11:40:37;97791.22;;;33.84;36.52
30081;BME280;16902;50.816;12.828;2023-07-13T11:45:39;97796.97;;;35.07;35.78
30081;BME280;16902;50.816;12.828;2023-07-13T11:51:15;97779.28;;;33.52;37.24
30081;BME280;16902;50.816;12.828;2023-07-13T11:56:18;97789.31;;;31.24;40.46
30081;BME280;16902;50.816;12.828;2023-07-13T12:01:26;97782.13;;;29.50;48.79
30081;BME280;16902;50.816;12.828;2023-07-13T12:06:35;97771.81;;;27.82;53.26
30081;BME280;16902;50.816;12.828;2023-07-13T12:11:44;97778.88;;;30.20;44.85
30081;BME280;16902;50.816;12.828;2023-07-13T12:16:47;97782.41;;;33.75;36.81
30081;BME280;16902;50.816;12.828;2023-07-13T12:21:53;97780.94;;;34.77;35.55
30081;BME280;16902;50.816;12.828;2023-07-13T12:27:02;97768.03;;;33.20;35.63
30081;BME280;16902;50.816;12.828;2023-07-13T12:32:08;97780.59;;;33.67;35.60
30081;BME280;16902;50.816;12.828;2023-07-13T12:37:12;97780.22;;;34.56;34.39
30081;BME280;16902;50.816;12.828;2023-07-13T12:47:30;97778.81;;;29.53;43.76
30081;BME280;16902;50.816;12.828;2023-07-13T12:52:34;97773.44;;;27.97;44.43
30081;BME280;16902;50.816;12.828;2023-07-13T12:57:57;97770.56;;;28.72;48.79
30081;BME280;16902;50.816;12.828;2023-07-13T13:03:07;97779.88;;;33.58;38.42
30081;BME280;16902;50.816;12.828;2023-07-13T13:08:28;97790.72;;;37.02;31.82
30081;BME280;16902;50.816;12.828;2023-07-13T13:13:30;97794.59;;;37.91;29.13
30081;BME280;16902;50.816;12.828;2023-07-13T13:18:32;97791.69;;;39.45;28.39
30081;BME280;16902;50.816;12.828;2023-07-13T13:23:34;97776.44;;;36.90;31.16
30081;BME280;16902;50.816;12.828;2023-07-13T13:28:36;97769.56;;;32.62;32.72
30081;BME280;16902;50.816;12.828;2023-07-13T13:33:39;97773.19;;;30.76;36.65
30081;BME280;16902;50.816;12.828;2023-07-13T13:38:45;97777.03;;;30.92;35.77
30081;BME280;16902;50.816;12.828;2023-07-13T13:43:47;97775.75;;;33.31;34.20
30081;BME280;16902;50.816;12.828;2023-07-13T13:48:49;97785.34;;;35.06;32.23
30081;BME280;16902;50.816;12.828;2023-07-13T13:53:51;97778.41;;;31.38;34.56
30081;BME280;16902;50.816;12.828;2023-07-13T13:58:54;97778.88;;;30.20;39.67
30081;BME280;16902;50.816;12.828;2023-07-13T14:03:56;97781.84;;;35.18;33.06
30081;BME280;16902;50.816;12.828;2023-07-13T14:09:01;97793.09;;;35.85;29.89
30081;BME280;16902;50.816;12.828;2023-07-13T14:14:04;97788.09;;;33.61;33.24
30081;BME280;16902;50.816;12.828;2023-07-13T14:19:08;97791.47;;;34.00;31.45
30081;BME280;16902;50.816;12.828;2023-07-13T14:24:12;97793.94;;;37.78;28.78
30081;BME280;16902;50.816;12.828;2023-07-13T14:29:16;97787.94;;;41.89;26.63
30081;BME280;16902;50.816;12.828;2023-07-13T14:34:22;97789.63;;;42.97;23.35
30081;BME280;16902;50.816;12.828;2023-07-13T14:39:25;97784.44;;;38.99;25.31
30081;BME280;16902;50.816;12.828;2023-07-13T14:44:29;97784.19;;;34.58;30.21
30081;BME280;16902;50.816;12.828;2023-07-13T14:49:37;97781.72;;;36.51;27.52
30081;BME280;16902;50.816;12.828;2023-07-13T14:54:40;97779.59;;;34.38;29.15
30081;BME280;16902;50.816;12.828;2023-07-13T14:59:46;97781.25;;;33.64;29.88
30081;BME280;16902;50.816;12.828;2023-07-13T15:04:48;97787.81;;;34.99;30.05
30081;BME280;16902;50.816;12.828;2023-07-13T15:09:50;97782.94;;;37.36;27.15
30081;BME280;16902;50.816;12.828;2023-07-13T15:14:52;97797.88;;;42.90;22.13
30081;BME280;16902;50.816;12.828;2023-07-13T15:19:56;97792.28;;;37.03;25.58
30081;BME280;16902;50.816;12.828;2023-07-13T15:24:57;97772.91;;;30.94;33.58
30081;BME280;16902;50.816;12.828;2023-07-13T15:30:03;97771.75;;;29.07;36.28
30081;BME280;16902;50.816;12.828;2023-07-13T15:35:17;97767.81;;;30.13;35.69
30081;BME280;16902;50.816;12.828;2023-07-13T15:40:19;97774.50;;;31.04;33.18
30081;BME280;16902;50.816;12.828;2023-07-13T15:45:24;97772.53;;;37.22;27.46
30081;BME280;16902;50.816;12.828;2023-07-13T15:50:42;97782.28;;;39.39;24.39
30081;BME280;16902;50.816;12.828;2023-07-13T15:55:45;97782.50;;;32.78;30.70
30081;BME280;16902;50.816;12.828;2023-07-13T16:00:47;97773.06;;;31.55;32.55
30081;BME280;16902;50.816;12.828;2023-07-13T16:05:53;97772.72;;;28.70;36.80
30081;BME280;16902;50.816;12.828;2023-07-13T16:10:56;97773.38;;;27.83;37.94
30081;BME280;16902;50.816;12.828;2023-07-13T16:15:58;97772.03;;;28.64;37.98
30081;BME280;16902;50.816;12.828;2023-07-13T16:21:00;97772.09;;;27.80;38.03
30081;BME280;16902;50.816;12.828;2023-07-13T16:26:02;97778.63;;;27.69;39.60
30081;BME280;16902;50.816;12.828;2023-07-13T16:31:04;97778.78;;;27.59;40.29
30081;BME280;16902;50.816;12.828;2023-07-13T16:36:12;97789.13;;;27.04;41.84
30081;BME280;16902;50.816;12.828;2023-07-13T16:41:15;97787.72;;;25.95;44.51
30081;BME280;16902;50.816;12.828;2023-07-13T16:46:21;97780.53;;;25.51;46.70
30081;BME280;16902;50.816;12.828;2023-07-13T16:51:24;97786.47;;;25.33;47.26
30081;BME280;16902;50.816;12.828;2023-07-13T16:56:27;97782.53;;;25.25;49.51
30081;BME280;16902;50.816;12.828;2023-07-13T17:01:28;97797.03;;;25.58;48.84
30081;BME280;16902;50.816;12.828;2023-07-13T17:06:30;97800.94;;;25.22;45.60
30081;BME280;16902;50.816;12.828;2023-07-13T17:11:32;97808.25;;;24.70;51.03
30081;BME280;16902;50.816;12.828;2023-07-13T17:16:34;97807.50;;;24.34;53.66
30081;BME280;16902;50.816;12.828;2023-07-13T17:21:36;97822.91;;;24.01;53.99
30081;BME280;16902;50.816;12.828;2023-07-13T17:26:38;97818.88;;;23.83;53.03
30081;BME280;16902;50.816;12.828;2023-07-13T17:31:40;97811.13;;;23.62;51.97
30081;BME280;16902;50.816;12.828;2023-07-13T17:36:41;97822.53;;;23.52;58.83
30081;BME280;16902;50.816;12.828;2023-07-13T17:41:44;97815.25;;;23.22;72.44
30081;BME280;16902;50.816;12.828;2023-07-13T17:46:46;97827.34;;;22.92;61.64
30081;BME280;16902;50.816;12.828;2023-07-13T17:51:50;97835.06;;;22.62;75.91
30081;BME280;16902;50.816;12.828;2023-07-13T17:56:52;97831.97;;;22.38;66.47
30081;BME280;16902;50.816;12.828;2023-07-13T18:01:54;97838.75;;;22.23;81.97
30081;BME280;16902;50.816;12.828;2023-07-13T18:06:56;97832.19;;;22.04;69.24
30081;BME280;16902;50.816;12.828;2023-07-13T18:11:58;97836.16;;;21.74;83.93
30081;BME280;16902;50.816;12.828;2023-07-13T18:17:00;97847.06;;;21.56;88.90
30081;BME280;16902;50.816;12.828;2023-07-13T18:22:15;97842.59;;;21.35;98.15
30081;BME280;16902;50.816;12.828;2023-07-13T18:27:18;97848.50;;;21.20;100.00
30081;BME280;16902;50.816;12.828;2023-07-13T18:32:20;97855.13;;;21.00;100.00
30081;BME280;16902;50.816;12.828;2023-07-13T18:37:22;97847.91;;;20.79;100.00
30081;BME280;16902;50.816;12.828;2023-07-13T18:42:24;97853.25;;;20.62;100.00
30081;BME280;16902;50.816;12.828;2023-07-13T18:47:26;97848.44;;;20.59;100.00
30081;BME280;16902;50.816;12.828;2023-07-13T18:52:34;97853.66;;;20.54;100.00
30081;BME280;16902;50.816;12.828;2023-07-13T18:57:35;97860.69;;;20.32;100.00
30081;BME280;16902;50.816;12.828;2023-07-13T19:02:37;97874.97;;;20.02;100.00
30081;BME280;16902;50.816;12.828;2023-07-13T19:07:39;97884.78;;;19.90;100.00
30081;BME280;16902;50.816;12.828;2023-07-13T19:12:44;97887.41;;;19.73;100.00
30081;BME280;16902;50.816;12.828;2023-07-13T19:17:47;97899.59;;;19.50;100.00
30081;BME280;16902;50.816;12.828;2023-07-13T19:22:51;97906.63;;;19.33;100.00
30081;BME280;16902;50.816;12.828;2023-07-13T19:28:01;97922.38;;;19.16;100.00
30081;BME280;16902;50.816;12.828;2023-07-13T19:33:11;97922.72;;;18.96;100.00
30081;BME280;16902;50.816;12.828;2023-07-13T19:38:20;97930.38;;;18.74;100.00
30081;BME280;16902;50.816;12.828;2023-07-13T19:43:23;97936.06;;;18.60;100.00
30081;BME280;16902;50.816;12.828;2023-07-13T19:48:25;97943.16;;;18.59;100.00
30081;BME280;16902;50.816;12.828;2023-07-13T19:53:26;97946.97;;;18.63;100.00
30081;BME280;16902;50.816;12.828;2023-07-13T19:58:29;97956.19;;;18.72;100.00
30081;BME280;16902;50.816;12.828;2023-07-13T20:03:31;97951.47;;;18.74;100.00
30081;BME280;16902;50.816;12.828;2023-07-13T20:08:33;97964.66;;;18.74;100.00
30081;BME280;16902;50.816;12.828;2023-07-13T20:13:35;97966.31;;;18.99;100.00
30081;BME280;16902;50.816;12.828;2023-07-13T20:18:36;97980.78;;;19.08;100.00
30081;BME280;16902;50.816;12.828;2023-07-13T20:23:39;97978.59;;;19.05;100.00
30081;BME280;16902;50.816;12.828;2023-07-13T20:28:40;97983.66;;;19.07;100.00
30081;BME280;16902;50.816;12.828;2023-07-13T20:33:43;97981.25;;;19.05;100.00
30081;BME280;16902;50.816;12.828;2023-07-13T20:38:45;97988.00;;;19.01;100.00
30081;BME280;16902;50.816;12.828;2023-07-13T20:43:48;97995.34;;;19.11;100.00
30081;BME280;16902;50.816;12.828;2023-07-13T20:48:50;97994.09;;;19.13;100.00
30081;BME280;16902;50.816;12.828;2023-07-13T20:53:52;98002.13;;;19.07;100.00
30081;BME280;16902;50.816;12.828;2023-07-13T20:58:55;97993.94;;;18.85;100.00
30081;BME280;16902;50.816;12.828;2023-07-13T21:04:00;98004.97;;;18.63;100.00
30081;BME280;16902;50.816;12.828;2023-07-13T21:09:18;98005.09;;;18.57;100.00
30081;BME280;16902;50.816;12.828;2023-07-13T21:14:20;98013.69;;;18.52;100.00
30081;BME280;16902;50.816;12.828;2023-07-13T21:19:25;98024.22;;;18.52;100.00
30081;BME280;16902;50.816;12.828;2023-07-13T21:24:27;98036.72;;;18.57;100.00
30081;BME280;16902;50.816;12.828;2023-07-13T21:29:29;98050.38;;;18.65;100.00
30081;BME280;16902;50.816;12.828;2023-07-13T21:34:31;98054.06;;;18.64;100.00
30081;BME280;16902;50.816;12.828;2023-07-13T21:39:33;98061.59;;;18.61;100.00
30081;BME280;16902;50.816;12.828;2023-07-13T21:44:35;98060.16;;;18.46;100.00
30081;BME280;16902;50.816;12.828;2023-07-13T21:49:37;98062.19;;;18.33;100.00
30081;BME280;16902;50.816;12.828;2023-07-13T21:54:39;98068.94;;;18.10;100.00
30081;BME280;16902;50.816;12.828;2023-07-13T21:59:41;98082.47;;;17.95;100.00
30081;BME280;16902;50.816;12.828;2023-07-13T22:04:43;98088.63;;;17.89;100.00
30081;BME280;16902;50.816;12.828;2023-07-13T22:09:46;98093.94;;;17.83;100.00
30081;BME280;16902;50.816;12.828;2023-07-13T22:14:48;98090.09;;;17.60;100.00
30081;BME280;16902;50.816;12.828;2023-07-13T22:19:50;98086.06;;;17.33;100.00
30081;BME280;16902;50.816;12.828;2023-07-13T22:24:53;98087.00;;;17.13;100.00
30081;BME280;16902;50.816;12.828;2023-07-13T22:29:55;98089.94;;;16.99;100.00
30081;BME280;16902;50.816;12.828;2023-07-13T22:34:57;98092.25;;;16.82;100.00
30081;BME280;16902;50.816;12.828;2023-07-13T22:40:02;98097.78;;;16.74;100.00
30081;BME280;16902;50.816;12.828;2023-07-13T22:45:09;98090.56;;;16.56;100.00
30081;BME280;16902;50.816;12.828;2023-07-13T22:50:16;98086.59;;;16.33;100.00
30081;BME280;16902;50.816;12.828;2023-07-13T22:55:18;98102.63;;;16.18;100.00
30081;BME280;16902;50.816;12.828;2023-07-13T23:00:23;98108.72;;;16.06;100.00
30081;BME280;16902;50.816;12.828;2023-07-13T23:05:24;98110.97;;;16.02;100.00
30081;BME280;16902;50.816;12.828;2023-07-13T23:10:27;98113.19;;;16.05;100.00
30081;BME280;16902;50.816;12.828;2023-07-13T23:15:30;98106.47;;;16.09;100.00
30081;BME280;16902;50.816;12.828;2023-07-13T23:20:34;98111.78;;;15.96;100.00
30081;BME280;16902;50.816;12.828;2023-07-13T23:25:37;98120.25;;;15.85;100.00
30081;BME280;16902;50.816;12.828;2023-07-13T23:30:45;98117.47;;;15.73;100.00
30081;BME280;16902;50.816;12.828;2023-07-13T23:35:48;98123.50;;;15.80;100.00
30081;BME280;16902;50.816;12.828;2023-07-13T23:40:52;98122.09;;;15.71;100.00
30081;BME280;16902;50.816;12.828;2023-07-13T23:45:54;98109.16;;;15.56;100.00
30081;BME280;16902;50.816;12.828;2023-07-13T23:50:56;98109.38;;;15.48;100.00
30081;BME280;16902;50.816;12.828;2023-07-13T23:55:58;98111.19;;;15.34;100.00
